Time;durP1;ratioP1;P1;durP2;ratioP2;P2;SDS_P1;SDS_P2;PMS_P1;PMS_P2;Temp;Humidity;BMP_temperature;BMP_pressure;BME280_temperature;BME280_humidity;BME280_pressure;Samples;Min_cycle;Max_cycle;Signal;HPM_P1;HPM_P2
2023/07/23 00:02:19;;;;;;;27.27;25.23;;;;;;;;;;5053200;28;20990;-88
2023/07/23 00:04:46;;;;;;;27.97;25.90;;;;;;;;;;5053442;28;20453;-88
2023/07/23 00:07:13;;;;;;;27.23;25.27;;;;;;;;;;5053617;28;20417;-88
2023/07/23 00:09:40;;;;;;;29.03;26.83;;;;;;;;;;5053220;28;20442;-89
2023/07/23 00:12:09;;;;;;;31.30;28.77;;;;;;;;;;5053745;28;20499;-89
2023/07/23 00:14:36;;;;;;;28.13;26.13;;;;;;;;;;5053545;28;20458;-89
2023/07/23 00:17:03;;;;;;;26.80;25.00;;;;;;;;;;5053562;28;20413;-89
2023/07/23 00:19:30;;;;;;;28.70;26.70;;;;;;;;;;5052880;28;20914;-89
2023/07/23 00:21:57;;;;;;;28.20;26.40;;;;;;;;;;5052625;28;20465;-89
2023/07/23 00:24:24;;;;;;;29.57;27.53;;;;;;;;;;5052966;28;20478;-88
2023/07/23 00:26:51;;;;;;;27.97;26.07;;;;;;;;;;5053396;28;20421;-89
2023/07/23 00:29:20;;;;;;;28.20;26.37;;;;;;;;;;5053013;28;20788;-88
2023/07/23 00:31:47;;;;;;;28.23;26.17;;;;;;;;;;5052579;28;20446;-89
2023/07/23 00:34:14;;;;;;;27.83;25.60;;;;;;;;;;5052740;28;20504;-89
2023/07/23 00:36:41;;;;;;;28.37;26.37;;;;;;;;;;5053617;28;20433;-89
2023/07/23 00:39:08;;;;;;;27.30;25.60;;;;;;;;;;5053070;28;20447;-89
2023/07/23 00:41:35;;;;;;;26.93;25.10;;;;;;;;;;5053203;28;20430;-89
2023/07/23 00:44:03;;;;;;;26.80;25.13;;;;;;;;;;5053627;28;20461;-88
2023/07/23 00:46:32;;;;;;;28.20;26.20;;;;;;;;;;5053781;28;20902;-88
2023/07/23 00:49:01;;;;;;;27.07;25.37;;;;;;;;;;5053379;28;20420;-88
2023/07/23 00:51:28;;;;;;;27.50;25.30;;;;;;;;;;5052824;28;20457;-89
2023/07/23 00:53:55;;;;;;;27.50;25.80;;;;;;;;;;5053196;28;20482;-88
2023/07/23 00:56:22;;;;;;;27.43;25.30;;;;;;;;;;5053475;28;20458;-88
2023/07/23 00:58:49;;;;;;;25.10;23.60;;;;;;;;;;5052931;28;20895;-89
2023/07/23 01:01:18;;;;;;;26.47;24.70;;;;;;;;;;5053403;28;20491;-89
2023/07/23 01:03:46;;;;;;;27.23;25.50;;;;;;;;;;5053516;28;20449;-89
2023/07/23 01:06:14;;;;;;;27.50;25.77;;;;;;;;;;5053535;28;20904;-89
2023/07/23 01:08:43;;;;;;;24.93;23.40;;;;;;;;;;5052654;28;20505;-89
2023/07/23 01:11:10;;;;;;;26.73;24.97;;;;;;;;;;5052370;28;20558;-89
2023/07/23 01:13:38;;;;;;;27.37;25.67;;;;;;;;;;5053128;28;20958;-87
2023/07/23 01:16:07;;;;;;;26.20;24.30;;;;;;;;;;5053206;28;20506;-88
2023/07/23 01:18:34;;;;;;;25.20;23.57;;;;;;;;;;5052919;28;20421;-89
2023/07/23 01:21:03;;;;;;;27.10;25.10;;;;;;;;;;5052829;28;20455;-90
2023/07/23 01:23:31;;;;;;;26.13;24.43;;;;;;;;;;5052559;28;20479;-87
2023/07/23 01:25:58;;;;;;;25.50;24.00;;;;;;;;;;5054085;28;20538;-88
2023/07/23 01:28:25;;;;;;;26.07;24.20;;;;;;;;;;5055808;28;20469;-88
2023/07/23 01:30:54;;;;;;;25.77;23.83;;;;;;;;;;5056520;28;20489;-88
2023/07/23 01:33:21;;;;;;;25.57;23.87;;;;;;;;;;5056306;28;20457;-89
2023/07/23 01:36:05;;;;;;;26.23;24.53;;;;;;;;;;5111663;27;20616;-87
2023/07/23 01:38:32;;;;;;;26.30;24.53;;;;;;;;;;5111761;28;20452;-87
2023/07/23 01:41:01;;;;;;;26.00;24.30;;;;;;;;;;5112067;28;20509;-87
2023/07/23 01:43:28;;;;;;;26.30;24.67;;;;;;;;;;5111991;28;20468;-87
2023/07/23 01:45:55;;;;;;;26.63;24.03;;;;;;;;;;5112153;28;20444;-87
2023/07/23 01:48:23;;;;;;;25.53;23.93;;;;;;;;;;5111703;28;20939;-87
2023/07/23 01:50:50;;;;;;;25.90;24.30;;;;;;;;;;5110703;28;20475;-87
2023/07/23 01:53:19;;;;;;;25.70;24.17;;;;;;;;;;5110926;28;20415;-87
2023/07/23 01:55:46;;;;;;;24.83;23.13;;;;;;;;;;5110999;28;20995;-87
2023/07/23 01:58:13;;;;;;;25.17;23.67;;;;;;;;;;5111532;28;20423;-87
2023/07/23 02:00:40;;;;;;;25.60;23.77;;;;;;;;;;5110915;28;21428;-87
2023/07/23 02:03:07;;;;;;;25.17;23.53;;;;;;;;;;5111248;28;20799;-87
2023/07/23 02:05:35;;;;;;;23.67;22.13;;;;;;;;;;5111440;28;20416;-87
2023/07/23 02:08:02;;;;;;;23.27;21.53;;;;;;;;;;5111413;28;20411;-87
2023/07/23 02:10:30;;;;;;;25.40;23.40;;;;;;;;;;5110712;28;20411;-87
2023/07/23 02:12:57;;;;;;;25.47;23.77;;;;;;;;;;5110854;28;20450;-88
2023/07/23 02:15:24;;;;;;;23.47;21.93;;;;;;;;;;5111349;28;20446;-87
2023/07/23 02:17:51;;;;;;;24.27;22.83;;;;;;;;;;5111717;28;20460;-87
2023/07/23 02:20:18;;;;;;;24.30;22.70;;;;;;;;;;5111005;28;20452;-87
2023/07/23 02:22:46;;;;;;;25.67;23.97;;;;;;;;;;5111196;28;20403;-86
2023/07/23 02:25:14;;;;;;;24.23;22.60;;;;;;;;;;5111664;28;20448;-87
2023/07/23 02:27:42;;;;;;;23.40;22.00;;;;;;;;;;5111546;28;20480;-86
2023/07/23 02:30:10;;;;;;;24.70;23.20;;;;;;;;;;5110669;28;20418;-87
2023/07/23 02:32:37;;;;;;;23.97;22.47;;;;;;;;;;5110200;28;20450;-87
2023/07/23 02:35:04;;;;;;;24.47;22.63;;;;;;;;;;5111025;28;20489;-87
2023/07/23 02:37:31;;;;;;;24.10;22.37;;;;;;;;;;5110582;28;20536;-87
2023/07/23 02:39:58;;;;;;;25.00;23.20;;;;;;;;;;5110294;28;20511;-87
2023/07/23 02:42:25;;;;;;;25.17;22.87;;;;;;;;;;5111032;28;20826;-87
2023/07/23 02:44:54;;;;;;;24.73;22.80;;;;;;;;;;5111110;28;20940;-87
2023/07/23 02:47:21;;;;;;;24.50;22.90;;;;;;;;;;5097278;28;20423;-87
2023/07/23 02:49:48;;;;;;;23.87;22.40;;;;;;;;;;5096770;28;20448;-87
2023/07/23 02:52:15;;;;;;;23.60;22.10;;;;;;;;;;5096377;28;20496;-87
2023/07/23 02:54:43;;;;;;;24.20;22.70;;;;;;;;;;5097103;28;20469;-87
2023/07/23 02:57:10;;;;;;;24.37;22.70;;;;;;;;;;5097187;28;20451;-87
2023/07/23 02:59:37;;;;;;;22.77;21.40;;;;;;;;;;5096643;28;20419;-87
2023/07/23 03:02:05;;;;;;;23.43;21.83;;;;;;;;;;5096907;28;20504;-87
2023/07/23 03:04:32;;;;;;;25.13;23.43;;;;;;;;;;5097068;28;20415;-87
2023/07/23 03:06:59;;;;;;;24.23;22.77;;;;;;;;;;5097153;28;20502;-86
2023/07/23 03:09:26;;;;;;;24.53;22.90;;;;;;;;;;5095525;28;20465;-87
2023/07/23 03:11:53;;;;;;;24.47;22.97;;;;;;;;;;5096469;28;20428;-87
2023/07/23 03:14:20;;;;;;;23.63;22.13;;;;;;;;;;5096676;28;20911;-87
2023/07/23 03:16:47;;;;;;;25.30;23.53;;;;;;;;;;5096869;28;20422;-87
2023/07/23 03:19:16;;;;;;;25.23;23.30;;;;;;;;;;5095745;28;20951;-87
2023/07/23 03:21:43;;;;;;;22.97;21.47;;;;;;;;;;5095941;28;20975;-87
2023/07/23 03:24:10;;;;;;;23.50;21.90;;;;;;;;;;5096595;28;20915;-87
2023/07/23 03:26:37;;;;;;;22.93;21.63;;;;;;;;;;5096872;28;20445;-87
2023/07/23 03:29:04;;;;;;;23.00;21.60;;;;;;;;;;5096194;28;20420;-86
2023/07/23 03:31:33;;;;;;;25.47;23.30;;;;;;;;;;5095765;28;20432;-87
2023/07/23 03:34:00;;;;;;;24.23;22.83;;;;;;;;;;5096089;28;20457;-87
2023/07/23 03:36:29;;;;;;;24.03;22.30;;;;;;;;;;5096533;28;20461;-87
2023/07/23 03:38:56;;;;;;;24.10;22.67;;;;;;;;;;5095134;28;20440;-86
2023/07/23 03:41:23;;;;;;;25.03;23.20;;;;;;;;;;5096023;28;20451;-89
2023/07/23 03:43:50;;;;;;;24.57;23.17;;;;;;;;;;5096211;28;20446;-89
2023/07/23 03:46:17;;;;;;;25.30;23.50;;;;;;;;;;5095976;28;20416;-89
2023/07/23 03:48:44;;;;;;;24.60;23.00;;;;;;;;;;5095507;28;20455;-87
2023/07/23 03:51:12;;;;;;;25.43;23.60;;;;;;;;;;5095488;28;20488;-87
2023/07/23 03:53:40;;;;;;;25.27;23.67;;;;;;;;;;5095685;28;20891;-87
2023/07/23 03:56:07;;;;;;;24.27;22.63;;;;;;;;;;5095642;28;20452;-87
2023/07/23 03:58:33;;;;;;;25.10;23.37;;;;;;;;;;5094503;28;20444;-87
2023/07/23 04:01:00;;;;;;;24.00;22.50;;;;;;;;;;5095531;28;20481;-87
2023/07/23 04:03:27;;;;;;;23.97;22.50;;;;;;;;;;5095561;28;20440;-87
2023/07/23 04:05:54;;;;;;;26.17;23.90;;;;;;;;;;5095430;28;21050;-87
2023/07/23 04:08:21;;;;;;;25.57;23.83;;;;;;;;;;5095084;28;20446;-87
2023/07/23 04:10:50;;;;;;;24.77;23.33;;;;;;;;;;5094814;28;20452;-87
2023/07/23 04:13:17;;;;;;;24.03;22.50;;;;;;;;;;5095151;28;20455;-87
2023/07/23 04:15:44;;;;;;;23.53;21.83;;;;;;;;;;5095450;28;20463;-87
2023/07/23 04:18:13;;;;;;;24.10;22.50;;;;;;;;;;5095031;28;20434;-87
2023/07/23 04:20:40;;;;;;;24.83;23.30;;;;;;;;;;5094473;28;20924;-87
2023/07/23 04:23:07;;;;;;;25.87;23.97;;;;;;;;;;5095263;28;20416;-87
2023/07/23 04:25:34;;;;;;;23.40;22.00;;;;;;;;;;5094842;28;20437;-87
2023/07/23 04:28:03;;;;;;;23.17;21.77;;;;;;;;;;5094929;28;20478;-87
2023/07/23 04:30:33;;;;;;;23.10;21.50;;;;;;;;;;5094032;28;20472;-87
2023/07/23 04:33:00;;;;;;;24.50;22.87;;;;;;;;;;5095648;28;20503;-87
2023/07/23 04:35:27;;;;;;;24.70;23.07;;;;;;;;;;5094950;28;20488;-87
2023/07/23 04:37:54;;;;;;;24.70;23.20;;;;;;;;;;5095084;28;20924;-87
2023/07/23 04:40:22;;;;;;;24.87;23.17;;;;;;;;;;5094811;28;20828;-87
2023/07/23 04:42:49;;;;;;;24.50;22.90;;;;;;;;;;5094464;28;20522;-87
2023/07/23 04:45:17;;;;;;;23.23;21.73;;;;;;;;;;5095264;28;20427;-87
2023/07/23 04:47:44;;;;;;;24.63;23.20;;;;;;;;;;5095110;28;20912;-87
2023/07/23 04:50:12;;;;;;;23.43;22.00;;;;;;;;;;5094868;28;20933;-87
2023/07/23 04:52:39;;;;;;;23.87;22.43;;;;;;;;;;5094662;28;20486;-87
2023/07/23 04:55:08;;;;;;;22.47;21.17;;;;;;;;;;5094736;28;20458;-87
2023/07/23 04:57:35;;;;;;;23.13;21.73;;;;;;;;;;5094544;28;20460;-87
2023/07/23 05:00:05;;;;;;;24.00;22.40;;;;;;;;;;5094178;28;20448;-87
2023/07/23 05:02:33;;;;;;;24.07;22.10;;;;;;;;;;5093655;28;20580;-89
2023/07/23 05:05:00;;;;;;;23.30;21.80;;;;;;;;;;5094619;28;20510;-89
2023/07/23 05:07:27;;;;;;;23.17;21.70;;;;;;;;;;5094795;28;20456;-87
2023/07/23 05:09:55;;;;;;;23.17;21.77;;;;;;;;;;5093855;28;20507;-87
2023/07/23 05:12:22;;;;;;;23.57;22.03;;;;;;;;;;5094449;28;20456;-87
2023/07/23 05:14:49;;;;;;;22.33;21.03;;;;;;;;;;5094685;28;20415;-87
2023/07/23 05:17:16;;;;;;;23.27;21.70;;;;;;;;;;5094170;28;20472;-87
2023/07/23 05:19:44;;;;;;;25.23;23.53;;;;;;;;;;5093845;28;20433;-86
2023/07/23 05:22:11;;;;;;;23.73;22.27;;;;;;;;;;5094350;28;20472;-87
2023/07/23 05:24:39;;;;;;;23.77;22.10;;;;;;;;;;5094184;28;20445;-87
2023/07/23 05:27:06;;;;;;;23.57;21.90;;;;;;;;;;5093725;28;20439;-87
2023/07/23 05:29:33;;;;;;;22.90;21.40;;;;;;;;;;5093800;28;20453;-87
2023/07/23 05:32:00;;;;;;;24.30;22.10;;;;;;;;;;5094124;28;20455;-87
2023/07/23 05:34:27;;;;;;;23.80;22.33;;;;;;;;;;5094249;28;20483;-87
2023/07/23 05:36:56;;;;;;;23.40;21.67;;;;;;;;;;5094374;28;20455;-87
2023/07/23 05:39:23;;;;;;;23.27;21.77;;;;;;;;;;5093998;28;20423;-87
2023/07/23 05:41:50;;;;;;;22.77;21.20;;;;;;;;;;5093585;28;20460;-87
2023/07/23 05:44:17;;;;;;;23.70;22.30;;;;;;;;;;5094080;28;20929;-87
2023/07/23 05:46:44;;;;;;;23.50;22.00;;;;;;;;;;5093737;28;20792;-86
2023/07/23 05:49:11;;;;;;;23.60;22.10;;;;;;;;;;5093495;28;20419;-87
2023/07/23 05:51:38;;;;;;;23.23;21.73;;;;;;;;;;5094224;28;21262;-87
2023/07/23 05:54:07;;;;;;;22.90;21.40;;;;;;;;;;5093881;28;20424;-86
2023/07/23 05:56:34;;;;;;;23.93;22.27;;;;;;;;;;5094338;28;20447;-87
2023/07/23 05:59:01;;;;;;;23.33;21.73;;;;;;;;;;5094012;28;20427;-87
2023/07/23 06:01:28;;;;;;;23.40;21.87;;;;;;;;;;5093437;28;20476;-87
2023/07/23 06:03:55;;;;;;;23.97;21.90;;;;;;;;;;5093869;28;20408;-87
2023/07/23 06:06:23;;;;;;;22.90;21.43;;;;;;;;;;5094027;28;20425;-87
2023/07/23 06:08:51;;;;;;;23.77;21.67;;;;;;;;;;5093993;28;20431;-87
2023/07/23 06:11:19;;;;;;;23.93;22.27;;;;;;;;;;5093623;28;20437;-87
2023/07/23 06:13:46;;;;;;;23.60;22.00;;;;;;;;;;5093600;28;20976;-87
2023/07/23 06:16:13;;;;;;;23.30;21.80;;;;;;;;;;5093340;28;20546;-87
2023/07/23 06:18:40;;;;;;;22.73;21.00;;;;;;;;;;5093391;28;20428;-87
2023/07/23 06:21:07;;;;;;;22.20;20.80;;;;;;;;;;5094479;28;20506;-87
2023/07/23 06:23:35;;;;;;;22.97;21.60;;;;;;;;;;5097923;28;20456;-87
2023/07/23 06:26:02;;;;;;;24.10;22.40;;;;;;;;;;5097732;28;20419;-87
2023/07/23 06:28:32;;;;;;;23.03;21.47;;;;;;;;;;5097053;28;20434;-87
2023/07/23 06:30:59;;;;;;;23.00;21.60;;;;;;;;;;5097220;28;20447;-87
2023/07/23 06:33:27;;;;;;;23.27;21.90;;;;;;;;;;5097413;28;20956;-87
2023/07/23 06:35:54;;;;;;;23.57;22.17;;;;;;;;;;5096979;28;20463;-87
2023/07/23 06:38:21;;;;;;;23.37;21.87;;;;;;;;;;5097289;28;20419;-87
2023/07/23 06:40:49;;;;;;;23.50;22.00;;;;;;;;;;5097365;28;20447;-87
2023/07/23 06:43:16;;;;;;;22.23;20.70;;;;;;;;;;5097518;28;20879;-86
2023/07/23 06:45:46;;;;;;;23.07;21.67;;;;;;;;;;5096734;28;20538;-86
2023/07/23 06:48:13;;;;;;;23.30;21.67;;;;;;;;;;5097307;28;20492;-87
2023/07/23 06:50:40;;;;;;;23.20;21.70;;;;;;;;;;5096585;28;20434;-87
2023/07/23 06:53:08;;;;;;;23.00;21.50;;;;;;;;;;5097181;28;20404;-87
2023/07/23 06:55:36;;;;;;;23.50;22.00;;;;;;;;;;5097608;28;20826;-87
2023/07/23 06:58:03;;;;;;;24.63;22.83;;;;;;;;;;5097378;28;20445;-87
2023/07/23 07:00:31;;;;;;;23.47;21.93;;;;;;;;;;5096093;28;20460;-88
2023/07/23 07:02:59;;;;;;;24.33;22.67;;;;;;;;;;5096563;28;20964;-87
2023/07/23 07:05:27;;;;;;;24.57;22.87;;;;;;;;;;5086418;28;20428;-87
2023/07/23 07:07:54;;;;;;;22.33;20.93;;;;;;;;;;5077916;28;20424;-87
2023/07/23 07:10:21;;;;;;;23.90;22.30;;;;;;;;;;5077135;28;20453;-87
2023/07/23 07:12:48;;;;;;;23.00;21.63;;;;;;;;;;5076535;28;20444;-86
2023/07/23 07:15:16;;;;;;;23.33;21.93;;;;;;;;;;5077004;28;20450;-87
2023/07/23 07:17:43;;;;;;;23.60;22.20;;;;;;;;;;5076438;28;20464;-87
2023/07/23 07:20:12;;;;;;;23.77;22.20;;;;;;;;;;5075312;28;20468;-87
2023/07/23 07:22:39;;;;;;;24.10;22.40;;;;;;;;;;5077042;28;20477;-87
2023/07/23 07:25:06;;;;;;;22.57;21.10;;;;;;;;;;5076392;28;20449;-87
2023/07/23 07:27:33;;;;;;;22.57;21.27;;;;;;;;;;5076150;28;20435;-86
2023/07/23 07:30:00;;;;;;;21.90;20.57;;;;;;;;;;5076037;28;20439;-87
2023/07/23 07:32:27;;;;;;;23.33;21.73;;;;;;;;;;5075477;28;20585;-87
2023/07/23 07:34:55;;;;;;;24.87;22.80;;;;;;;;;;5077611;28;20424;-87
2023/07/23 07:37:24;;;;;;;23.03;21.53;;;;;;;;;;5075983;28;20534;-87
2023/07/23 07:39:51;;;;;;;23.90;22.27;;;;;;;;;;5075449;28;20527;-87
2023/07/23 07:42:19;;;;;;;23.63;22.00;;;;;;;;;;5076043;28;20458;-87
2023/07/23 07:44:46;;;;;;;24.13;22.17;;;;;;;;;;5076838;28;20433;-87
2023/07/23 07:47:15;;;;;;;24.23;22.80;;;;;;;;;;5079005;28;20424;-86
2023/07/23 07:49:42;;;;;;;25.03;23.53;;;;;;;;;;5079534;28;20941;-86
2023/07/23 07:52:11;;;;;;;24.10;22.33;;;;;;;;;;5079389;28;20460;-86
2023/07/23 07:54:40;;;;;;;24.97;23.47;;;;;;;;;;5078087;28;20432;-86
2023/07/23 07:57:07;;;;;;;25.17;23.57;;;;;;;;;;5080347;28;20557;-86
2023/07/23 07:59:35;;;;;;;24.40;22.83;;;;;;;;;;5079914;28;20420;-86
2023/07/23 08:02:02;;;;;;;25.10;23.37;;;;;;;;;;5078268;28;20458;-86
2023/07/23 08:04:29;;;;;;;24.60;23.10;;;;;;;;;;5078325;28;20485;-88
2023/07/23 08:06:57;;;;;;;25.13;23.43;;;;;;;;;;5075931;28;20437;-86
2023/07/23 08:09:24;;;;;;;24.17;22.57;;;;;;;;;;5078233;28;20425;-87
2023/07/23 08:11:55;;;;;;;24.00;22.50;;;;;;;;;;5077890;28;20478;-88
2023/07/23 08:14:22;;;;;;;25.30;23.20;;;;;;;;;;5076688;28;20419;-87
2023/07/23 08:16:53;;;;;;;23.17;21.60;;;;;;;;;;5077646;28;20800;-87
2023/07/23 08:19:21;;;;;;;23.90;22.40;;;;;;;;;;5077347;28;20409;-87
2023/07/23 08:21:48;;;;;;;22.80;21.40;;;;;;;;;;5077130;28;20486;-87
2023/07/23 08:24:15;;;;;;;23.30;21.90;;;;;;;;;;5077700;28;20415;-87
2023/07/23 08:26:43;;;;;;;23.33;21.93;;;;;;;;;;5078069;28;20847;-87
2023/07/23 08:29:13;;;;;;;23.23;21.83;;;;;;;;;;5076950;28;20401;-87
2023/07/23 08:31:40;;;;;;;24.20;22.63;;;;;;;;;;5077222;28;20478;-85
2023/07/23 08:34:07;;;;;;;23.07;21.70;;;;;;;;;;5077711;28;20451;-86
2023/07/23 08:36:35;;;;;;;23.47;22.03;;;;;;;;;;5075628;28;20482;-87
2023/07/23 08:39:04;;;;;;;24.20;22.60;;;;;;;;;;5076436;28;20428;-88
2023/07/23 08:41:36;;;;;;;23.07;21.77;;;;;;;;;;5076588;28;20469;-89
2023/07/23 08:44:16;;;;;;;24.87;23.17;;;;;;;;;;5077464;28;20464;-86
2023/07/23 08:46:46;;;;;;;23.67;22.07;;;;;;;;;;5079691;28;20405;-86
2023/07/23 08:49:13;;;;;;;23.93;22.43;;;;;;;;;;5078224;28;20441;-89
2023/07/23 08:51:42;;;;;;;23.27;21.77;;;;;;;;;;5075639;28;20453;-87
2023/07/23 08:54:09;;;;;;;24.70;23.20;;;;;;;;;;5075839;28;20489;-87
2023/07/23 08:56:37;;;;;;;24.07;22.67;;;;;;;;;;5076663;28;20525;-87
2023/07/23 08:59:05;;;;;;;23.87;22.47;;;;;;;;;;5076295;28;20413;-87
2023/07/23 09:01:36;;;;;;;24.60;23.00;;;;;;;;;;5076430;28;20496;-87
2023/07/23 09:04:03;;;;;;;23.53;22.10;;;;;;;;;;5077171;28;20439;-86
2023/07/23 09:06:31;;;;;;;23.53;22.03;;;;;;;;;;5096769;28;20423;-87
2023/07/23 09:09:04;;;;;;;24.17;22.57;;;;;;;;;;5094431;28;20415;-88
2023/07/23 09:11:32;;;;;;;24.17;22.40;;;;;;;;;;5094224;28;20972;-88
2023/07/23 09:14:00;;;;;;;23.63;22.13;;;;;;;;;;5095061;28;20430;-87
2023/07/23 09:16:27;;;;;;;24.23;22.73;;;;;;;;;;5093585;28;20810;-88
2023/07/23 09:18:56;;;;;;;24.43;22.63;;;;;;;;;;5094332;28;20856;-89
2023/07/23 09:21:26;;;;;;;24.30;22.40;;;;;;;;;;5094667;28;20464;-89
2023/07/23 09:23:54;;;;;;;24.20;22.50;;;;;;;;;;5094447;28;20779;-89
2023/07/23 09:26:22;;;;;;;24.30;22.90;;;;;;;;;;5095793;28;20790;-89
2023/07/23 09:28:51;;;;;;;23.97;22.47;;;;;;;;;;5095341;28;20423;-89
2023/07/23 09:31:22;;;;;;;24.60;22.93;;;;;;;;;;5094759;28;20954;-88
2023/07/23 09:33:49;;;;;;;24.67;23.17;;;;;;;;;;5094672;28;20415;-88
2023/07/23 09:36:20;;;;;;;22.90;21.60;;;;;;;;;;5094570;28;20413;-88
2023/07/23 09:38:54;;;;;;;24.30;22.57;;;;;;;;;;5094687;28;20429;-89
2023/07/23 09:41:21;;;;;;;24.67;23.27;;;;;;;;;;5094955;28;20501;-88
2023/07/23 09:43:48;;;;;;;24.47;22.93;;;;;;;;;;5094855;28;20457;-90
2023/07/23 09:46:15;;;;;;;23.23;21.80;;;;;;;;;;5095181;28;20423;-88
2023/07/23 09:48:45;;;;;;;23.93;22.27;;;;;;;;;;5093743;28;20443;-89
2023/07/23 09:51:12;;;;;;;23.70;22.30;;;;;;;;;;5095119;28;20461;-90
2023/07/23 09:53:45;;;;;;;23.87;22.47;;;;;;;;;;5094973;28;21247;-89
2023/07/23 09:56:13;;;;;;;22.87;21.57;;;;;;;;;;5096119;28;20427;-89
2023/07/23 09:58:40;;;;;;;23.40;22.10;;;;;;;;;;5097846;28;20968;-88
2023/07/23 10:01:08;;;;;;;23.63;22.00;;;;;;;;;;5098764;28;20519;-88
2023/07/23 10:03:35;;;;;;;22.57;21.17;;;;;;;;;;5098777;28;20403;-88
2023/07/23 10:06:02;;;;;;;22.43;21.03;;;;;;;;;;5099332;28;20482;-88
2023/07/23 10:08:31;;;;;;;23.90;22.20;;;;;;;;;;5097623;28;20502;-88
2023/07/23 10:10:59;;;;;;;23.27;21.97;;;;;;;;;;5097789;28;20476;-87
2023/07/23 10:13:26;;;;;;;23.50;22.20;;;;;;;;;;5098203;28;20449;-87
2023/07/23 10:15:54;;;;;;;23.40;22.10;;;;;;;;;;5098401;28;20434;-88
2023/07/23 10:18:23;;;;;;;23.53;22.20;;;;;;;;;;5097740;28;20475;-89
2023/07/23 10:20:51;;;;;;;22.57;21.37;;;;;;;;;;5097623;28;20443;-88
2023/07/23 10:23:18;;;;;;;22.47;21.07;;;;;;;;;;5097320;28;20542;-88
2023/07/23 10:25:45;;;;;;;23.70;22.00;;;;;;;;;;5097279;28;20407;-87
2023/07/23 10:28:22;;;;;;;22.20;21.00;;;;;;;;;;5097107;28;20408;-87
2023/07/23 10:31:10;;;;;;;23.43;22.20;;;;;;;;;;5097029;28;20495;-88
2023/07/23 10:33:37;;;;;;;22.97;21.77;;;;;;;;;;5097020;28;20455;-88
2023/07/23 10:36:04;;;;;;;23.10;21.80;;;;;;;;;;5092413;28;20412;-88
2023/07/23 10:38:32;;;;;;;21.77;20.47;;;;;;;;;;5076635;28;20491;-89
2023/07/23 10:41:00;;;;;;;22.97;21.50;;;;;;;;;;5077660;28;20481;-88
2023/07/23 10:43:39;;;;;;;22.83;21.60;;;;;;;;;;5079007;28;20432;-89
2023/07/23 10:46:07;;;;;;;24.10;22.50;;;;;;;;;;5090533;28;20765;-89
2023/07/23 10:48:45;;;;;;;22.87;21.57;;;;;;;;;;5098250;28;20429;-89
2023/07/23 10:51:13;;;;;;;22.47;21.17;;;;;;;;;;5100833;28;20456;-89
2023/07/23 10:53:44;;;;;;;23.13;21.80;;;;;;;;;;5099849;28;20498;-88
2023/07/23 10:56:35;;;;;;;23.00;21.27;;;;;;;;;;5085920;28;20443;-86
2023/07/23 10:59:06;;;;;;;23.27;21.97;;;;;;;;;;5073461;28;20442;-88
2023/07/23 11:01:35;;;;;;;22.20;21.00;;;;;;;;;;5079756;28;20979;-88
2023/07/23 11:04:07;;;;;;;23.23;21.93;;;;;;;;;;5079876;28;20438;-87
2023/07/23 11:06:35;;;;;;;22.53;21.30;;;;;;;;;;5077170;28;20440;-88
2023/07/23 11:09:05;;;;;;;21.90;20.70;;;;;;;;;;5076337;28;20400;-89
2023/07/23 11:11:37;;;;;;;22.07;20.97;;;;;;;;;;5076798;28;20436;-88
2023/07/23 11:14:17;;;;;;;24.07;22.67;;;;;;;;;;5076761;28;20404;-88
2023/07/23 11:16:44;;;;;;;22.83;21.57;;;;;;;;;;5076918;28;20459;-87
2023/07/23 11:19:12;;;;;;;23.03;21.67;;;;;;;;;;5075876;28;20494;-88
2023/07/23 11:21:44;;;;;;;21.97;20.77;;;;;;;;;;5076724;28;20477;-88
2023/07/23 11:24:12;;;;;;;22.57;21.30;;;;;;;;;;5076401;28;20391;-88
2023/07/23 11:26:39;;;;;;;24.60;23.20;;;;;;;;;;5090709;28;20415;-87
2023/07/23 11:29:08;;;;;;;24.13;22.63;;;;;;;;;;5096414;28;20422;-88
2023/07/23 11:31:35;;;;;;;21.77;20.63;;;;;;;;;;5096058;28;20480;-88
2023/07/23 11:34:02;;;;;;;22.27;21.07;;;;;;;;;;5097180;28;20489;-88
2023/07/23 11:36:30;;;;;;;23.20;21.70;;;;;;;;;;5100609;28;20911;-84
2023/07/23 11:38:57;;;;;;;22.90;21.50;;;;;;;;;;5100607;28;20452;-88
2023/07/23 11:41:28;;;;;;;23.10;21.70;;;;;;;;;;5096656;28;20447;-88
2023/07/23 11:43:55;;;;;;;23.80;22.40;;;;;;;;;;5095484;28;20518;-88
2023/07/23 11:46:24;;;;;;;22.70;21.50;;;;;;;;;;5096291;28;20494;-88
2023/07/23 11:48:53;;;;;;;22.67;21.37;;;;;;;;;;5096116;28;20506;-87
2023/07/23 11:51:20;;;;;;;22.07;20.87;;;;;;;;;;5096028;28;20528;-88
2023/07/23 11:53:50;;;;;;;22.70;21.40;;;;;;;;;;5096931;28;20488;-88
2023/07/23 11:56:17;;;;;;;22.90;21.40;;;;;;;;;;5096152;28;20391;-87
2023/07/23 11:58:44;;;;;;;35.80;33.10;;;;;;;;;;5097059;28;20451;-81
2023/07/23 12:01:12;;;;;;;25.43;23.93;;;;;;;;;;5082742;28;20444;-86
2023/07/23 12:03:41;;;;;;;25.63;24.23;;;;;;;;;;5081981;28;20438;-86
2023/07/23 12:06:08;;;;;;;25.67;24.00;;;;;;;;;;5080655;28;20488;-86
2023/07/23 12:08:38;;;;;;;24.20;22.90;;;;;;;;;;5080659;28;20469;-87
2023/07/23 12:11:08;;;;;;;23.93;22.40;;;;;;;;;;5080494;28;20448;-86
2023/07/23 12:13:35;;;;;;;25.00;23.60;;;;;;;;;;5082115;28;20428;-85
2023/07/23 12:16:02;;;;;;;24.00;22.63;;;;;;;;;;5081580;28;20451;-86
2023/07/23 12:18:29;;;;;;;22.80;21.40;;;;;;;;;;5078941;28;20556;-87
2023/07/23 12:21:01;;;;;;;23.77;22.37;;;;;;;;;;5078330;28;21168;-87
2023/07/23 12:23:28;;;;;;;24.63;22.73;;;;;;;;;;5076756;28;20466;-87
2023/07/23 12:25:55;;;;;;;25.00;23.50;;;;;;;;;;5077187;28;20449;-86
2023/07/23 12:28:27;;;;;;;24.33;23.07;;;;;;;;;;5076300;28;20421;-87
2023/07/23 12:30:54;;;;;;;23.77;22.47;;;;;;;;;;5076508;28;20456;-87
2023/07/23 12:33:21;;;;;;;22.77;21.53;;;;;;;;;;5078921;28;20431;-86
2023/07/23 12:35:48;;;;;;;23.47;22.07;;;;;;;;;;5079591;28;20460;-86
2023/07/23 12:38:16;;;;;;;24.70;23.30;;;;;;;;;;5079725;28;20452;-86
2023/07/23 12:40:43;;;;;;;22.17;20.97;;;;;;;;;;5079246;28;20452;-86
2023/07/23 12:43:10;;;;;;;23.37;22.07;;;;;;;;;;5080208;28;20445;-85
2023/07/23 12:45:37;;;;;;;22.40;21.30;;;;;;;;;;5081135;28;20404;-85
2023/07/23 12:48:05;;;;;;;23.47;22.17;;;;;;;;;;5080493;28;20433;-85
2023/07/23 12:50:33;;;;;;;22.60;21.20;;;;;;;;;;5081357;28;20454;-85
2023/07/23 12:53:01;;;;;;;23.00;21.70;;;;;;;;;;5079246;28;20648;-85
2023/07/23 12:55:29;;;;;;;22.10;21.00;;;;;;;;;;5080279;28;20473;-84
2023/07/23 12:57:56;;;;;;;22.70;21.50;;;;;;;;;;5080088;28;20485;-86
2023/07/23 13:00:23;;;;;;;23.00;21.70;;;;;;;;;;5078222;28;20473;-85
2023/07/23 13:02:50;;;;;;;23.50;21.97;;;;;;;;;;5080372;28;20442;-84
2023/07/23 13:05:19;;;;;;;23.30;22.10;;;;;;;;;;5075154;28;20507;-88
2023/07/23 13:07:46;;;;;;;24.23;22.70;;;;;;;;;;5075049;28;20511;-88
2023/07/23 13:10:14;;;;;;;22.93;21.63;;;;;;;;;;5074998;28;20507;-88
2023/07/23 13:12:42;;;;;;;23.30;22.13;;;;;;;;;;5075780;28;20511;-85
2023/07/23 13:15:10;;;;;;;23.00;21.60;;;;;;;;;;5075336;28;20444;-87
2023/07/23 13:17:37;;;;;;;21.87;20.77;;;;;;;;;;5075162;28;20427;-87
2023/07/23 13:20:05;;;;;;;21.17;20.00;;;;;;;;;;5078880;28;21149;-87
2023/07/23 13:22:33;;;;;;;21.30;20.10;;;;;;;;;;5076781;28;20561;-84
2023/07/23 13:25:05;;;;;;;23.00;21.70;;;;;;;;;;5095505;28;20416;-88
2023/07/23 13:27:33;;;;;;;22.30;21.20;;;;;;;;;;5097347;28;20448;-89
2023/07/23 13:30:11;;;;;;;22.50;21.30;;;;;;;;;;5095707;28;20444;-89
2023/07/23 13:32:43;;;;;;;21.03;19.93;;;;;;;;;;5096299;28;20428;-85
2023/07/23 13:35:11;;;;;;;21.80;20.70;;;;;;;;;;5079447;28;20457;-82
2023/07/23 13:37:40;;;;;;;21.77;20.67;;;;;;;;;;5075082;28;20438;-87
2023/07/23 13:40:11;;;;;;;21.53;20.43;;;;;;;;;;5074178;28;20496;-87
2023/07/23 13:42:39;;;;;;;21.87;20.50;;;;;;;;;;5074583;28;20462;-87
2023/07/23 13:45:13;;;;;;;21.77;20.60;;;;;;;;;;5074281;28;20508;-87
2023/07/23 13:47:40;;;;;;;21.87;20.77;;;;;;;;;;5073659;28;20476;-88
2023/07/23 13:50:07;;;;;;;22.13;20.93;;;;;;;;;;5074150;28;20424;-88
2023/07/23 13:52:34;;;;;;;20.50;19.40;;;;;;;;;;5074598;28;20465;-89
2023/07/23 13:55:12;;;;;;;20.67;19.57;;;;;;;;;;5075195;28;20429;-86
2023/07/23 13:57:40;;;;;;;22.07;20.97;;;;;;;;;;5085016;28;20444;-86
2023/07/23 14:00:08;;;;;;;21.80;20.70;;;;;;;;;;5096208;28;20501;-86
2023/07/23 14:02:42;;;;;;;21.70;20.60;;;;;;;;;;5094737;28;20447;-86
2023/07/23 14:05:10;;;;;;;21.80;20.70;;;;;;;;;;5094021;28;20444;-83
2023/07/23 14:07:38;;;;;;;23.50;22.30;;;;;;;;;;5093391;28;20437;-83
2023/07/23 14:10:09;;;;;;;23.43;22.17;;;;;;;;;;5092510;28;20893;-85
2023/07/23 14:12:44;;;;;;;22.70;21.40;;;;;;;;;;5094743;28;20902;-87
2023/07/23 14:15:12;;;;;;;23.97;22.87;;;;;;;;;;5095708;28;20429;-87
2023/07/23 14:17:41;;;;;;;23.17;21.97;;;;;;;;;;5095048;28;20486;-87
2023/07/23 14:20:15;;;;;;;23.33;21.50;;;;;;;;;;5094560;28;20448;-86
2023/07/23 14:22:43;;;;;;;21.80;20.70;;;;;;;;;;5100614;28;20455;-87